METAR Data
IDs: Format: Raw Decoded Include TAF

Data at: 0746 UTC 03 Aug 2021

KMER 030715Z AUTO 34004KT CLR 19/09 A2997 RMK AO1
KMER 030655Z AUTO 35006KT CLR 19/09 A2997 RMK AO1
KMER 030635Z AUTO 34006KT CLR 20/08 A2997 RMK AO1
KMER 030615Z AUTO 34006KT CLR 21/08 A2996 RMK AO1
KMER 030555Z AUTO 34006KT CLR 22/08 A2996 RMK AO1
KMER 030535Z AUTO 33006KT CLR 22/08 A2996 RMK AO1
KMER 030515Z AUTO 33007KT CLR 22/07 A2996 RMK AO1
KMER 030455Z AUTO 33007KT CLR 23/07 A2996 RMK AO1
KMER 030435Z AUTO 33007KT CLR 23/08 A2996 RMK AO1
KMER 030415Z AUTO 33007KT CLR 23/08 A2995 RMK AO1
KMER 030355Z AUTO 34007KT CLR 24/09 A2995 RMK AO1
KMER 030335Z AUTO 32007KT CLR 24/09 A2995 RMK AO1
KMER 030315Z AUTO 33008KT CLR 26/09 A2994 RMK AO1
KMER 030255Z AUTO 33008KT CLR 27/09 A2994 RMK AO1
KMER 030245Z 31007KT 4SM FU FEW110 29/09 A2994
KMER 030145Z 32010KT 5SM FU FEW110 33/10 A2994
KMER 030045Z 31011KT 5SM FU FEW110 35/12 A2995
KMER 022345Z 31009KT 7SM FEW110 26/10 A2996
KMER 022245Z 31008KT 7SM FEW110 37/08 A2998
KMER 022045Z 28007KT 7SM FEW110 34/10 A3002
KMER 021945Z 29009KT 7SM SKC 32/11 A3004
KMER 021845Z 32004KT 4SM FU SKC 30/12 A3006
KMER 021745Z 31005KT 03SM FU SKC 27/13 A3007
KMER 021645Z 32005KT 03SM FU SKC 25/12 A3007
KMER 021445Z 32006KT 10SM SKC 19/13 A3008
KMER 021345Z 32004KT 10SM SKC 16/14 A3006
KMER 021315Z AUTO 33005KT 15/13 A3006 RMK AO1
KMER 021255Z AUTO 34005KT CLR 16/13 A3005 RMK AO1
KMER 021235Z AUTO 35005KT CLR 16/13 A3005 RMK AO1
KMER 021215Z AUTO 34004KT 15/13 A3004 RMK AO1
KMER 021155Z AUTO 34006KT CLR 16/13 A3003 RMK AO1
KMER 021135Z AUTO 33007KT CLR 16/13 A3003 RMK AO1
KMER 021115Z AUTO 33006KT CLR 16/13 A3003 RMK AO1
KMER 021055Z AUTO 32006KT CLR 16/12 A3002 RMK AO1
KMER 021035Z AUTO 32007KT CLR 17/12 A3002 RMK AO1
KMER 021015Z AUTO 33007KT CLR 17/12 A3001 RMK AO1
KMER 020955Z AUTO 32007KT CLR 17/11 A3001 RMK AO1
KMER 020935Z AUTO 33006KT CLR 17/11 A3001 RMK AO1
KMER 020915Z AUTO 33007KT CLR 17/11 A3001 RMK AO1
KMER 020855Z AUTO 34006KT CLR 18/11 A3001 RMK AO1
KMER 020835Z AUTO 34007KT CLR 19/11 A3001 RMK AO1
KMER 020815Z AUTO 34008KT CLR 19/11 A3001 RMK AO1
KMER 020755Z AUTO 33009KT CLR 19/11 A3001 RMK AO1
KMER 020735Z AUTO 32009KT CLR 20/11 A3001 RMK AO1
KMER 020715Z AUTO 32009KT CLR 21/11 A3001 RMK AO1
KMER 020655Z AUTO 32009KT CLR 21/10 A3001 RMK AO1
KMER 020635Z AUTO 32010KT CLR 22/10 A3000 RMK AO1
KMER 020615Z AUTO 33008KT CLR 22/10 A3000 RMK AO1
KMER 020555Z AUTO 33011KT CLR 23/10 A2999 RMK AO1
KMER 020535Z AUTO 34009KT CLR 23/10 A2999 RMK AO1
KMER 020435Z AUTO 34008KT CLR 26/12 A2998 RMK AO1
KMER 020415Z AUTO 34006KT CLR 26/12 A2997 RMK AO1
KMER 020355Z AUTO 34008KT CLR 27/12 A2996 RMK AO1
KMER 020345Z 32008KT 10SM SKC 28/12 A2995
KMER 020335Z AUTO 34008KT CLR 28/12 A2995 RMK AO1
KMER 020315Z AUTO 33009KT CLR 29/11 A2994 RMK AO1
KMER 020255Z AUTO 33009KT CLR 29/10 A2994 RMK AO1
KMER 020145Z 29006KT 10SM SKC 35/12 A2992
KMER 020045Z 29005KT 10SM SKC 38/12 A2992
KMER 012345Z 29005KT 10SM SKC 39/11 A2992
KMER 012245Z 29006KT 10SM SKC 40/09 A2994
KMER 012145Z 29006KT 10SM SKC 40/08 A2995
KMER 012045Z 28005KT 10SM SKC 38/09 A2997